createdAt,value
2018-02-15T00:02:02.910Z,3.20
2018-02-15T00:04:31.224Z,3.10
2018-02-15T00:06:59.525Z,3.10
2018-02-15T00:09:28.561Z,3.00
2018-02-15T00:11:56.861Z,3.00
2018-02-15T00:14:25.921Z,2.90
2018-02-15T00:16:54.314Z,2.90
2018-02-15T00:19:22.596Z,2.90
2018-02-15T00:21:50.900Z,2.80
2018-02-15T00:24:19.194Z,2.80
2018-02-15T00:26:47.479Z,2.80
2018-02-15T00:29:15.733Z,2.70
2018-02-15T00:31:44.020Z,2.60
2018-02-15T00:34:12.305Z,2.50
2018-02-15T00:36:40.598Z,2.40
2018-02-15T00:39:08.715Z,2.30
2018-02-15T00:41:37.778Z,2.20
2018-02-15T00:44:06.068Z,2.20
2018-02-15T00:46:34.343Z,2.10
2018-02-15T00:49:02.656Z,2.00
2018-02-15T00:51:30.945Z,2.00
2018-02-15T00:53:59.224Z,1.90
2018-02-15T00:56:27.538Z,1.70
2018-02-15T00:58:55.840Z,1.70
2018-02-15T01:01:25.502Z,1.60
2018-02-15T01:03:54.613Z,1.50
2018-02-15T01:06:22.711Z,1.50
2018-02-15T01:08:51.006Z,1.50
2018-02-15T01:11:19.717Z,1.40
2018-02-15T01:13:48.063Z,1.40
2018-02-15T01:16:16.572Z,1.40
2018-02-15T01:18:44.872Z,1.30
2018-02-15T01:21:13.183Z,1.30
2018-02-15T01:23:42.237Z,1.20
2018-02-15T01:26:11.296Z,1.20
2018-02-15T01:28:39.589Z,1.10
2018-02-15T01:31:07.897Z,1.20
2018-02-15T01:33:36.313Z,1.10
2018-02-15T01:36:05.211Z,1.10
2018-02-15T01:38:33.514Z,1.10
2018-02-15T01:41:01.784Z,1.10
2018-02-15T01:43:30.070Z,1.10
2018-02-15T01:45:58.032Z,1.00
2018-02-15T01:48:26.381Z,1.00
2018-02-15T01:50:54.661Z,1.00
2018-02-15T01:53:22.966Z,1.00
2018-02-15T01:55:51.228Z,1.00
2018-02-15T01:58:19.485Z,1.00
2018-02-15T02:00:47.792Z,1.00
2018-02-15T02:03:16.065Z,1.00
2018-02-15T02:05:44.337Z,1.00
2018-02-15T02:08:12.620Z,1.00
2018-02-15T02:10:41.209Z,1.00
2018-02-15T02:13:09.484Z,1.00
2018-02-15T02:15:37.768Z,1.10
2018-02-15T02:18:06.034Z,1.00
2018-02-15T02:20:34.313Z,1.10
2018-02-15T02:23:02.589Z,1.00
2018-02-15T02:25:31.096Z,1.00
2018-02-15T02:28:00.183Z,1.10
2018-02-15T02:30:28.540Z,1.00
2018-02-15T02:32:57.000Z,1.00
2018-02-15T02:35:25.292Z,1.10
2018-02-15T02:37:54.586Z,1.00
2018-02-15T02:40:22.906Z,1.10
2018-02-15T02:42:51.183Z,1.10
2018-02-15T02:45:19.551Z,1.10
2018-02-15T02:47:48.101Z,1.10
2018-02-15T02:50:16.569Z,1.10
2018-02-15T02:52:45.009Z,1.20
2018-02-15T02:55:13.282Z,1.20
2018-02-15T02:57:41.573Z,1.20
2018-02-15T03:00:09.858Z,1.20
2018-02-15T03:02:37.958Z,1.30
2018-02-15T03:05:06.273Z,1.30
2018-02-15T03:07:34.569Z,1.30
2018-02-15T03:10:02.866Z,1.30
2018-02-15T03:12:31.902Z,1.40
2018-02-15T03:15:00.198Z,1.30
2018-02-15T03:17:28.479Z,1.40
2018-02-15T03:19:56.759Z,1.40
2018-02-15T03:22:25.060Z,1.40
2018-02-15T03:24:53.343Z,1.40
2018-02-15T03:27:21.617Z,1.40
2018-02-15T03:29:49.906Z,1.50
2018-02-15T03:32:18.174Z,1.50
2018-02-15T03:34:46.437Z,1.50
2018-02-15T03:37:14.961Z,1.50
2018-02-15T03:39:43.281Z,1.50
2018-02-15T03:42:11.551Z,1.50
2018-02-15T03:44:39.835Z,1.50
2018-02-15T03:47:08.100Z,1.50
2018-02-15T03:49:36.366Z,1.50
2018-02-15T03:52:04.649Z,1.60
2018-02-15T03:54:36.220Z,1.60
2018-02-15T03:57:04.499Z,1.70
2018-02-15T03:59:33.558Z,1.70
2018-02-15T04:02:01.849Z,1.70
2018-02-15T04:04:30.128Z,1.80
2018-02-15T04:06:58.408Z,1.70
2018-02-15T04:09:26.692Z,1.80
2018-02-15T04:11:54.772Z,1.80
2018-02-15T04:14:23.063Z,1.80
2018-02-15T04:16:51.367Z,1.80
2018-02-15T04:19:19.645Z,1.80
2018-02-15T04:21:47.911Z,1.80
2018-02-15T04:24:16.204Z,1.90
2018-02-15T04:26:45.250Z,1.90
2018-02-15T04:29:13.540Z,1.90
2018-02-15T04:31:41.822Z,1.90
2018-02-15T04:34:10.256Z,1.90
2018-02-15T04:36:39.185Z,1.90
2018-02-15T04:39:07.461Z,1.90
2018-02-15T04:41:35.730Z,1.90
2018-02-15T04:44:04.016Z,1.90
2018-02-15T04:46:32.310Z,2.00
2018-02-15T04:49:00.566Z,2.00
2018-02-15T04:51:29.629Z,2.00
2018-02-15T04:53:57.934Z,2.00
2018-02-15T04:59:20.727Z,2.00
2018-02-15T05:01:48.998Z,2.00
2018-02-15T05:04:17.257Z,2.00
2018-02-15T05:06:45.554Z,2.00
2018-02-15T05:09:13.825Z,2.00
2018-02-15T05:11:42.872Z,2.00
2018-02-15T05:14:11.150Z,2.00
2018-02-15T05:16:39.439Z,2.00
2018-02-15T05:19:07.711Z,2.10
2018-02-15T05:21:36.118Z,2.10
2018-02-15T05:24:04.402Z,2.10
2018-02-15T05:26:32.714Z,2.10
2018-02-15T05:29:00.972Z,2.10
2018-02-15T05:31:30.024Z,2.10
2018-02-15T05:33:58.308Z,2.10
2018-02-15T05:36:26.627Z,2.10
2018-02-15T05:38:55.097Z,2.10
2018-02-15T05:41:23.372Z,2.10
2018-02-15T05:46:51.150Z,2.20
2018-02-15T05:49:19.254Z,2.20
2018-02-15T05:51:47.520Z,2.20
2018-02-15T05:54:15.797Z,2.20
2018-02-15T05:56:44.071Z,2.20
2018-02-15T05:59:13.113Z,2.30
2018-02-15T06:01:42.216Z,2.30
2018-02-15T06:04:10.729Z,2.30
2018-02-15T06:06:39.084Z,2.30
2018-02-15T06:14:53.954Z,2.40
2018-02-15T06:17:23.087Z,2.40
2018-02-15T06:19:51.456Z,2.40
2018-02-15T06:22:19.797Z,2.40
2018-02-15T06:24:48.150Z,2.40
2018-02-15T06:27:16.515Z,2.40
2018-02-15T06:29:44.866Z,2.50
2018-02-15T06:32:13.203Z,2.40
2018-02-15T06:34:41.572Z,2.50
2018-02-15T06:54:28.011Z,2.60
2018-02-15T06:56:56.395Z,2.60
2018-02-15T06:59:24.793Z,2.70
2018-02-15T07:01:53.209Z,2.70
2018-02-15T07:04:21.571Z,2.70
2018-02-15T07:06:49.932Z,2.70
2018-02-15T07:09:18.330Z,2.70
2018-02-15T07:11:46.680Z,2.70
2018-02-15T07:14:15.048Z,2.70
2018-02-15T07:16:43.411Z,2.80
2018-02-15T07:19:11.791Z,2.80
2018-02-15T07:21:40.154Z,2.80
2018-02-15T07:24:08.503Z,2.80
2018-02-15T07:26:36.842Z,2.80
2018-02-15T07:29:05.222Z,2.80
2018-02-15T07:31:33.608Z,2.80
2018-02-15T07:34:01.968Z,2.80
2018-02-15T07:36:30.359Z,2.90
2018-02-15T07:38:58.863Z,2.90
2018-02-15T07:41:27.228Z,2.90
2018-02-15T07:43:55.575Z,2.90
2018-02-15T07:46:24.698Z,2.90
2018-02-15T07:48:52.880Z,2.90
2018-02-15T07:51:21.466Z,2.90
2018-02-15T07:53:49.663Z,3.00
2018-02-15T07:56:17.886Z,3.00
2018-02-15T07:58:46.215Z,3.00
2018-02-15T08:01:14.808Z,3.00
2018-02-15T08:03:43.190Z,3.00
2018-02-15T08:06:11.620Z,3.10
2018-02-15T08:08:40.566Z,3.10
2018-02-15T08:11:08.906Z,3.10
2018-02-15T08:13:37.257Z,3.10
2018-02-15T08:16:05.613Z,3.10
2018-02-15T08:18:37.288Z,3.20
2018-02-15T08:26:58.177Z,3.30
2018-02-15T08:29:26.545Z,3.30
2018-02-15T08:31:54.896Z,3.30
2018-02-15T08:34:26.371Z,3.30
2018-02-15T08:36:54.712Z,3.30
2018-02-15T08:39:23.322Z,3.30
2018-02-15T08:41:51.672Z,3.30
2018-02-15T08:44:20.056Z,3.40
2018-02-15T08:46:48.575Z,3.40
2018-02-15T09:06:36.551Z,3.60
2018-02-15T09:09:04.333Z,3.70
2018-02-15T09:11:32.727Z,3.70
2018-02-15T09:14:01.094Z,3.70
2018-02-15T09:16:29.495Z,3.80
2018-02-15T09:18:57.897Z,3.80
2018-02-15T09:21:26.290Z,3.80
2018-02-15T09:23:54.651Z,3.90
2018-02-15T09:26:23.036Z,3.90
2018-02-15T09:46:10.120Z,4.10
2018-02-15T09:48:38.522Z,4.10
2018-02-15T09:51:06.884Z,4.20
2018-02-15T09:53:35.250Z,4.10
2018-02-15T09:56:03.621Z,4.20
2018-02-15T09:58:32.067Z,4.30
2018-02-15T10:01:00.427Z,4.30
2018-02-15T10:03:28.817Z,4.40
2018-02-15T10:05:57.202Z,4.40
2018-02-15T10:25:48.517Z,4.90
2018-02-15T10:28:16.919Z,5.00
2018-02-15T10:30:45.371Z,5.00
2018-02-15T10:33:13.748Z,5.00
2018-02-15T10:35:42.127Z,5.00
2018-02-15T10:38:10.506Z,5.10
2018-02-15T10:40:38.912Z,5.10
2018-02-15T10:43:07.280Z,5.20
2018-02-15T10:45:35.669Z,5.30
2018-02-15T11:05:26.480Z,5.70
2018-02-15T11:07:54.835Z,5.70
2018-02-15T11:10:23.967Z,5.80
2018-02-15T11:12:52.339Z,5.70
2018-02-15T11:15:20.688Z,5.80
2018-02-15T11:17:49.069Z,5.80
2018-02-15T11:20:17.432Z,5.90
2018-02-15T11:22:45.792Z,5.90
2018-02-15T11:25:14.147Z,5.90
2018-02-15T11:44:59.839Z,6.30
2018-02-15T11:47:28.201Z,6.40
2018-02-15T11:49:56.573Z,6.50
2018-02-15T11:52:24.977Z,6.60
2018-02-15T11:54:53.331Z,6.60
2018-02-15T11:57:21.680Z,6.70
2018-02-15T11:59:50.805Z,6.80
2018-02-15T12:02:19.177Z,6.90
2018-02-15T12:04:48.318Z,7.10
2018-02-15T12:24:35.503Z,8.20
2018-02-15T12:27:03.862Z,8.50
2018-02-15T12:29:32.247Z,8.90
2018-02-15T12:32:00.606Z,9.10
2018-02-15T12:34:28.946Z,9.20
2018-02-15T12:36:57.306Z,9.20
2018-02-15T12:39:25.656Z,9.40
2018-02-15T12:41:54.011Z,9.50
2018-02-15T12:44:22.393Z,9.40
2018-02-15T12:46:50.750Z,9.50
2018-02-15T12:49:19.117Z,9.60
2018-02-15T12:51:47.482Z,9.60
2018-02-15T12:54:15.848Z,9.60
2018-02-15T12:56:44.976Z,9.70
2018-02-15T12:59:13.343Z,9.70
2018-02-15T13:01:42.463Z,9.70
2018-02-15T13:04:10.812Z,9.60
2018-02-15T13:06:39.961Z,9.40
2018-02-15T13:09:08.493Z,9.50
2018-02-15T13:11:36.830Z,9.30
2018-02-15T13:14:05.205Z,9.30
2018-02-15T13:16:44.699Z,9.40
2018-02-15T13:19:24.131Z,9.20
2018-02-15T13:21:53.285Z,9.60
2018-02-15T13:24:21.672Z,9.50
2018-02-15T13:26:50.037Z,9.60
2018-02-15T13:29:18.384Z,9.60
2018-02-15T13:31:46.534Z,9.70
2018-02-15T13:34:14.876Z,9.70
2018-02-15T13:36:43.235Z,9.70
2018-02-15T13:39:11.601Z,9.60
2018-02-15T13:41:39.963Z,9.60
2018-02-15T13:44:08.318Z,9.70
2018-02-15T13:46:36.704Z,9.70
2018-02-15T13:49:05.046Z,9.70
2018-02-15T13:51:34.190Z,9.60
2018-02-15T13:54:02.547Z,9.60
2018-02-15T13:56:30.911Z,9.70
2018-02-15T13:58:59.327Z,9.70
2018-02-15T14:01:27.691Z,9.80
2018-02-15T14:03:56.071Z,9.80
2018-02-15T14:06:25.200Z,9.80
2018-02-15T14:08:53.564Z,9.80
2018-02-15T14:11:21.896Z,9.80
2018-02-15T14:13:50.263Z,9.80
2018-02-15T14:16:18.648Z,9.70
2018-02-15T14:18:47.013Z,9.80
2018-02-15T14:21:15.393Z,9.90
2018-02-15T14:23:43.757Z,9.80
2018-02-15T14:26:12.323Z,9.80
2018-02-15T14:28:40.719Z,9.70
2018-02-15T14:31:09.056Z,9.70
2018-02-15T14:33:37.430Z,9.50
2018-02-15T14:36:05.777Z,9.50
2018-02-15T14:38:34.161Z,9.40
2018-02-15T14:41:02.523Z,9.40
2018-02-15T14:43:30.893Z,9.40
2018-02-15T14:45:59.247Z,9.20
2018-02-15T14:48:27.628Z,9.20
2018-02-15T14:50:55.970Z,9.20
2018-02-15T14:53:24.325Z,9.20
2018-02-15T14:55:52.710Z,9.20
2018-02-15T14:58:21.091Z,9.20
2018-02-15T15:00:49.488Z,9.10
2018-02-15T15:03:18.660Z,9.10
2018-02-15T15:05:47.166Z,9.10
2018-02-15T15:08:15.572Z,9.10
2018-02-15T15:10:44.703Z,9.10
2018-02-15T15:13:13.084Z,9.10
2018-02-15T15:15:41.480Z,9.10
2018-02-15T15:18:09.852Z,9.10
2018-02-15T15:20:38.246Z,9.10
2018-02-15T15:23:06.633Z,9.10
2018-02-15T15:25:35.061Z,9.00
2018-02-15T15:28:04.523Z,8.90
2018-02-15T15:30:32.914Z,8.90
2018-02-15T15:33:01.285Z,8.90
2018-02-15T15:35:29.661Z,8.80
2018-02-15T15:37:58.051Z,8.80
2018-02-15T15:40:26.435Z,8.80
2018-02-15T15:42:54.839Z,8.70
2018-02-15T15:45:23.235Z,8.70
2018-02-15T15:47:52.374Z,8.50
2018-02-15T15:50:20.744Z,8.50
2018-02-15T15:52:49.914Z,8.50
2018-02-15T15:55:18.282Z,8.50
2018-02-15T15:57:46.707Z,8.40
2018-02-15T16:00:15.893Z,8.30
2018-02-15T16:02:44.291Z,8.30
2018-02-15T16:05:12.713Z,8.20
2018-02-15T16:07:41.083Z,8.10
2018-02-15T16:10:09.497Z,8.00
2018-02-15T16:12:37.937Z,8.00
2018-02-15T16:15:07.118Z,7.90
2018-02-15T16:17:35.501Z,7.90
2018-02-15T16:20:03.920Z,7.80
2018-02-15T16:22:32.331Z,7.70
2018-02-15T16:25:00.722Z,7.60
2018-02-15T16:27:29.094Z,7.60
2018-02-15T16:29:58.033Z,7.50
2018-02-15T16:32:26.493Z,7.50
2018-02-15T16:34:54.862Z,7.40
2018-02-15T16:37:23.264Z,7.40
2018-02-15T16:39:51.635Z,7.40
2018-02-15T16:42:20.061Z,7.30
2018-02-15T16:44:49.300Z,7.10
2018-02-15T16:47:17.675Z,7.10
2018-02-15T16:49:46.068Z,7.00
2018-02-15T16:52:14.458Z,6.90
2018-02-15T16:54:42.841Z,6.80
2018-02-15T16:57:11.219Z,6.80
2018-02-15T16:59:39.585Z,6.70
2018-02-15T17:02:07.978Z,6.60
2018-02-15T17:04:36.356Z,6.50
2018-02-15T17:07:04.724Z,6.50
2018-02-15T17:09:33.844Z,6.60
2018-02-15T17:12:02.188Z,6.50
2018-02-15T17:14:30.574Z,6.50
2018-02-15T17:16:58.943Z,6.50
2018-02-15T17:19:27.323Z,6.50
2018-02-15T17:21:55.736Z,6.50
2018-02-15T17:24:24.252Z,6.60
2018-02-15T17:26:52.636Z,6.50
2018-02-15T17:29:21.030Z,6.40
2018-02-15T17:31:49.434Z,6.40
2018-02-15T17:34:17.781Z,6.40
2018-02-15T17:36:46.165Z,6.30
2018-02-15T17:39:14.552Z,6.30
2018-02-15T17:41:42.938Z,6.10
2018-02-15T17:44:11.312Z,6.20
2018-02-15T17:46:39.698Z,6.10
2018-02-15T17:49:08.067Z,6.10
2018-02-15T17:51:36.443Z,6.00
2018-02-15T17:54:04.798Z,6.00
2018-02-15T17:56:33.166Z,5.90
2018-02-15T17:59:01.548Z,6.00
2018-02-15T18:01:29.734Z,5.90
2018-02-15T18:03:58.096Z,5.90
2018-02-15T18:06:26.480Z,5.90
2018-02-15T18:08:54.841Z,5.80
2018-02-15T18:11:23.201Z,5.90
2018-02-15T18:13:51.594Z,5.80
2018-02-15T18:16:19.988Z,5.70
2018-02-15T18:18:48.368Z,5.80
2018-02-15T18:21:16.708Z,5.70
2018-02-15T18:23:46.567Z,5.70
2018-02-15T18:26:14.977Z,5.70
2018-02-15T18:28:43.354Z,5.60
2018-02-15T18:31:11.729Z,5.70
2018-02-15T18:33:40.122Z,5.60
2018-02-15T18:36:08.489Z,5.60
2018-02-15T18:38:36.854Z,5.60
2018-02-15T18:41:05.260Z,5.80
2018-02-15T18:43:33.830Z,5.70
2018-02-15T18:46:02.974Z,5.60
2018-02-15T18:48:31.321Z,5.50
2018-02-15T18:51:00.473Z,5.40
2018-02-15T18:53:28.851Z,5.40
2018-02-15T18:55:57.229Z,5.40
2018-02-15T18:58:26.382Z,5.30
2018-02-15T19:00:54.773Z,5.30
2018-02-15T19:03:23.137Z,5.20
2018-02-15T19:05:52.293Z,5.20
2018-02-15T19:08:20.662Z,5.20
2018-02-15T19:10:49.044Z,5.20
2018-02-15T19:13:17.409Z,5.20
2018-02-15T19:15:45.787Z,5.10
2018-02-15T19:18:14.898Z,5.10
2018-02-15T19:20:43.278Z,5.20
2018-02-15T19:23:11.637Z,5.10
2018-02-15T19:25:39.996Z,5.10
2018-02-15T19:28:08.351Z,5.00
2018-02-15T19:30:36.719Z,5.00
2018-02-15T19:33:05.084Z,5.00
2018-02-15T19:35:34.219Z,5.00
2018-02-15T19:38:02.575Z,4.90
2018-02-15T19:40:30.944Z,4.90
2018-02-15T19:42:59.316Z,4.90
2018-02-15T19:45:27.690Z,4.90
2018-02-15T19:47:56.055Z,4.80
2018-02-15T19:50:24.429Z,4.70
2018-02-15T19:52:52.788Z,4.70
2018-02-15T19:55:21.151Z,4.60
2018-02-15T19:57:49.511Z,4.60
2018-02-15T20:00:17.902Z,4.50
2018-02-15T20:02:47.038Z,4.50
2018-02-15T20:05:15.406Z,4.50
2018-02-15T20:07:43.950Z,4.50
2018-02-15T20:10:12.315Z,4.40
2018-02-15T20:12:40.683Z,4.40
2018-02-15T20:15:09.079Z,4.40
2018-02-15T20:17:37.448Z,4.40
2018-02-15T20:20:11.331Z,4.30
2018-02-15T20:22:40.499Z,4.30
2018-02-15T20:25:08.890Z,4.30
2018-02-15T20:27:42.623Z,4.30
2018-02-15T20:30:11.011Z,4.30
2018-02-15T20:32:39.366Z,4.30
2018-02-15T20:35:07.728Z,4.30
2018-02-15T20:37:41.502Z,4.30
2018-02-15T20:40:15.393Z,4.20
2018-02-15T20:42:43.746Z,4.10
2018-02-15T20:45:12.114Z,4.10
2018-02-15T20:47:40.495Z,4.10
2018-02-15T20:50:14.429Z,4.20
2018-02-15T20:52:51.515Z,4.10
2018-02-15T20:55:25.239Z,4.10
2018-02-15T20:57:54.404Z,4.10
2018-02-15T21:00:34.969Z,4.10
2018-02-15T21:03:03.490Z,4.00
2018-02-15T21:05:31.852Z,3.90
2018-02-15T21:08:05.120Z,4.10
2018-02-15T21:10:33.478Z,4.00
2018-02-15T21:13:01.868Z,4.10
2018-02-15T21:15:30.219Z,4.10
2018-02-15T21:17:58.586Z,4.10
2018-02-15T21:20:26.991Z,4.20
2018-02-15T21:22:55.361Z,4.10
2018-02-15T21:25:24.516Z,4.30
2018-02-15T21:27:52.886Z,4.30
2018-02-15T21:30:21.257Z,4.30
2018-02-15T21:32:49.651Z,4.20
2018-02-15T21:35:18.095Z,4.30
2018-02-15T21:37:46.461Z,4.20
2018-02-15T21:40:14.863Z,4.10
2018-02-15T21:42:43.265Z,4.20
2018-02-15T21:45:11.604Z,4.20
2018-02-15T21:47:40.000Z,4.20
2018-02-15T21:50:09.148Z,4.10
2018-02-15T21:52:37.191Z,4.10
2018-02-15T21:55:05.585Z,4.10
2018-02-15T21:57:33.937Z,4.00
2018-02-15T22:00:02.329Z,4.00
2018-02-15T22:02:31.468Z,3.90
2018-02-15T22:04:59.855Z,3.90
2018-02-15T22:07:28.242Z,3.90
2018-02-15T22:09:56.599Z,3.90
2018-02-15T22:12:24.971Z,3.80
2018-02-15T22:14:54.117Z,3.70
2018-02-15T22:17:22.539Z,3.70
2018-02-15T22:19:51.110Z,3.60
2018-02-15T22:22:19.570Z,3.50
2018-02-15T22:24:47.847Z,3.40
2018-02-15T22:27:16.137Z,3.30
2018-02-15T22:29:44.446Z,3.10
2018-02-15T22:32:12.817Z,3.00
2018-02-15T22:34:41.098Z,2.80
2018-02-15T22:37:09.443Z,2.70
2018-02-15T22:39:37.720Z,2.70
2018-02-15T22:42:06.026Z,2.60
2018-02-15T22:44:35.117Z,2.70
2018-02-15T22:47:03.397Z,2.70
2018-02-15T22:49:31.691Z,2.70
2018-02-15T22:52:00.076Z,2.70
2018-02-15T22:54:28.513Z,2.90
2018-02-15T22:56:57.588Z,2.90
2018-02-15T22:59:25.887Z,2.90
2018-02-15T23:01:54.199Z,3.00
2018-02-15T23:04:22.494Z,3.00
2018-02-15T23:06:50.798Z,3.10
2018-02-15T23:09:19.116Z,3.20
2018-02-15T23:11:48.196Z,3.60
2018-02-15T23:14:16.492Z,3.50
2018-02-15T23:16:44.783Z,3.70
2018-02-15T23:19:13.067Z,3.80
2018-02-15T23:21:41.385Z,3.80
2018-02-15T23:24:09.831Z,3.90
2018-02-15T23:26:38.139Z,4.00
2018-02-15T23:29:06.416Z,4.00
2018-02-15T23:31:34.714Z,4.00
2018-02-15T23:34:03.008Z,4.00
2018-02-15T23:36:31.317Z,4.20
2018-02-15T23:38:59.659Z,4.20
2018-02-15T23:41:28.134Z,4.20
2018-02-15T23:43:56.440Z,4.20
2018-02-15T23:46:25.524Z,4.30
2018-02-15T23:48:53.925Z,4.30
2018-02-15T23:51:22.219Z,4.10
2018-02-15T23:53:50.571Z,4.20
2018-02-15T23:56:18.929Z,4.10
2018-02-15T23:58:47.983Z,4.00
